Time;durP1;ratioP1;P1;durP2;ratioP2;P2;SDS_P1;SDS_P2;PMS_P1;PMS_P2;Temp;Humidity;BMP_temperature;BMP_pressure;BME280_temperature;BME280_humidity;BME280_pressure;Samples;Min_cycle;Max_cycle;Signal;HPM_P1;HPM_P2
2023/12/14 00:01:40;;;;;;;0.30;0.20;;;;;;;7.05;100.00;99211.78;5027845;28;20927;-51
2023/12/14 00:04:07;;;;;;;0.30;0.20;;;;;;;6.96;100.00;99216.47;5036124;28;20558;-51
2023/12/14 00:06:33;;;;;;;0.30;0.20;;;;;;;6.93;100.00;99225.34;5037738;28;20481;-52
2023/12/14 00:09:00;;;;;;;0.30;0.20;;;;;;;7.06;100.00;99228.47;5038365;28;20462;-51
2023/12/14 00:11:27;;;;;;;0.30;0.20;;;;;;;6.83;100.00;99243.25;5026906;28;20935;-52
2023/12/14 00:13:53;;;;;;;0.30;0.20;;;;;;;6.79;100.00;99246.91;5018736;28;21139;-51
2023/12/14 00:16:20;;;;;;;0.30;0.20;;;;;;;6.80;100.00;99246.00;5026252;28;20476;-51
2023/12/14 00:18:46;;;;;;;0.30;0.20;;;;;;;6.88;100.00;99251.06;5031276;28;20559;-51
2023/12/14 00:21:13;;;;;;;0.30;0.17;;;;;;;6.80;100.00;99253.91;5030763;28;20795;-51
2023/12/14 00:23:39;;;;;;;0.30;0.20;;;;;;;6.83;100.00;99261.75;5032731;28;21004;-52
2023/12/14 00:26:06;;;;;;;0.30;0.20;;;;;;;6.72;100.00;99255.94;5030903;28;20451;-51
2023/12/14 00:28:32;;;;;;;0.30;0.20;;;;;;;6.83;100.00;99259.09;5025265;28;20453;-51
2023/12/14 00:31:00;;;;;;;0.30;0.20;;;;;;;7.00;100.00;99270.97;5038318;28;20491;-51
2023/12/14 00:33:26;;;;;;;0.30;0.20;;;;;;;7.00;100.00;99273.59;5032888;28;20484;-52
2023/12/14 00:35:53;;;;;;;0.30;0.20;;;;;;;7.02;100.00;99277.91;5030725;28;20941;-51
2023/12/14 00:38:19;;;;;;;0.30;0.20;;;;;;;6.94;100.00;99277.28;5032218;28;20448;-52
2023/12/14 00:40:46;;;;;;;0.30;0.20;;;;;;;7.11;100.00;99279.41;5031207;28;20486;-52
2023/12/14 00:43:12;;;;;;;0.30;0.20;;;;;;;7.06;100.00;99278.69;5037436;28;20468;-54
2023/12/14 00:45:41;;;;;;;0.30;0.20;;;;;;;6.99;100.00;99292.97;5025321;28;20495;-51
2023/12/14 00:48:07;;;;;;;0.30;0.20;;;;;;;7.04;100.00;99291.09;5037043;28;20451;-52
2023/12/14 00:50:34;;;;;;;0.30;0.20;;;;;;;7.13;100.00;99298.75;5025062;28;21091;-51
2023/12/14 00:53:00;;;;;;;0.30;0.20;;;;;;;7.21;100.00;99296.72;5036927;28;20472;-51
2023/12/14 00:55:27;;;;;;;0.30;0.20;;;;;;;7.13;100.00;99301.38;5038013;28;20455;-52
2023/12/14 00:57:53;;;;;;;0.30;0.20;;;;;;;7.07;100.00;99307.69;5028090;28;20493;-56
2023/12/14 01:00:20;;;;;;;0.30;0.20;;;;;;;7.02;100.00;99312.25;5031011;28;20452;-51
2023/12/14 01:02:46;;;;;;;0.30;0.20;;;;;;;6.98;100.00;99322.94;5037187;28;20474;-51
2023/12/14 01:05:13;;;;;;;0.97;0.97;;;;;;;6.92;100.00;99325.78;5034356;28;20483;-51
2023/12/14 01:07:39;;;;;;;0.30;0.10;;;;;;;6.96;100.00;99330.94;5037854;28;20487;-52
2023/12/14 01:10:07;;;;;;;0.30;0.20;;;;;;;7.05;100.00;99329.78;5036702;28;20491;-51
2023/12/14 01:12:33;;;;;;;0.30;0.20;;;;;;;7.05;100.00;99335.94;5024354;28;20467;-51
2023/12/14 01:15:00;;;;;;;0.30;0.20;;;;;;;6.94;100.00;99338.03;5018393;28;20447;-52
2023/12/14 01:17:28;;;;;;;0.30;0.20;;;;;;;6.88;100.00;99348.78;5024222;28;20457;-52
2023/12/14 01:19:55;;;;;;;0.30;0.20;;;;;;;6.83;100.00;99342.75;5024042;28;20957;-58
2023/12/14 01:22:22;;;;;;;0.30;0.20;;;;;;;6.76;100.00;99357.06;5029496;28;20982;-51
2023/12/14 01:24:48;;;;;;;0.30;0.20;;;;;;;6.63;100.00;99360.94;5032358;28;20483;-51
2023/12/14 01:27:15;;;;;;;0.30;0.20;;;;;;;6.78;100.00;99360.53;5029177;28;20480;-52
2023/12/14 01:29:41;;;;;;;0.30;0.20;;;;;;;6.59;100.00;99375.16;5031898;28;20488;-51
2023/12/14 01:32:08;;;;;;;0.30;0.20;;;;;;;6.37;100.00;99365.16;5037302;28;20476;-51
2023/12/14 01:34:34;;;;;;;0.30;0.20;;;;;;;6.32;100.00;99374.13;5035166;28;20455;-51
2023/12/14 01:37:01;;;;;;;0.30;0.20;;;;;;;6.30;100.00;99383.81;5025825;28;20447;-51
2023/12/14 01:39:27;;;;;;;0.30;0.10;;;;;;;6.27;100.00;99390.03;5035111;28;20482;-51
2023/12/14 01:41:54;;;;;;;0.30;0.20;;;;;;;6.32;100.00;99387.31;5025804;28;20498;-51
2023/12/14 01:44:20;;;;;;;0.30;0.20;;;;;;;6.24;100.00;99388.34;5035548;28;20459;-51
2023/12/14 01:46:46;;;;;;;0.30;0.20;;;;;;;6.19;100.00;99395.53;5029698;28;20430;-51
2023/12/14 01:49:13;;;;;;;0.30;0.20;;;;;;;6.19;100.00;99395.53;5034773;28;20452;-51
2023/12/14 01:51:40;;;;;;;0.30;0.20;;;;;;;6.06;100.00;99390.59;5025824;28;20883;-51
2023/12/14 01:54:07;;;;;;;0.30;0.20;;;;;;;5.94;100.00;99397.03;5036725;28;20444;-51
2023/12/14 01:56:33;;;;;;;0.30;0.20;;;;;;;5.83;100.00;99405.16;5027316;28;20488;-51
2023/12/14 01:58:59;;;;;;;0.30;0.20;;;;;;;5.66;100.00;99407.34;5032607;28;20494;-52
2023/12/14 02:01:45;;;;;;;0.30;0.20;;;;;;;5.54;100.00;99411.13;5032468;28;20980;-51
2023/12/14 02:04:13;;;;;;;0.30;0.20;;;;;;;5.51;100.00;99416.47;5023009;28;20534;-50
2023/12/14 02:06:41;;;;;;;0.30;0.20;;;;;;;5.61;100.00;99415.34;5017878;28;20570;-58
2023/12/14 02:09:08;;;;;;;0.30;0.20;;;;;;;5.63;100.00;99426.75;5023080;28;20454;-50
2023/12/14 02:11:34;;;;;;;0.30;0.10;;;;;;;5.53;100.00;99429.59;5023372;28;21033;-51
2023/12/14 02:14:06;;;;;;;0.30;0.20;;;;;;;5.48;100.00;99440.25;5035181;28;20447;-51
2023/12/14 02:16:32;;;;;;;0.30;0.17;;;;;;;5.53;100.00;99445.41;5022807;28;20447;-52
2023/12/14 02:18:59;;;;;;;0.30;0.17;;;;;;;5.47;100.00;99454.31;5033840;28;20524;-51
2023/12/14 02:21:26;;;;;;;0.30;0.10;;;;;;;5.56;100.00;99455.88;5035935;28;20558;-53
2023/12/14 02:23:53;;;;;;;0.30;0.20;;;;;;;5.46;100.00;99463.13;5036357;28;20459;-50
2023/12/14 02:26:19;;;;;;;0.30;0.20;;;;;;;5.52;100.00;99456.88;5035425;28;20909;-52
2023/12/14 02:28:45;;;;;;;0.30;0.20;;;;;;;5.58;100.00;99457.59;5022461;28;20550;-51
2023/12/14 02:31:12;;;;;;;0.30;0.20;;;;;;;5.46;100.00;99470.16;5035059;28;20863;-55
2023/12/14 02:33:39;;;;;;;0.30;0.20;;;;;;;5.52;100.00;99473.53;5023070;28;20464;-50
2023/12/14 02:36:06;;;;;;;0.30;0.20;;;;;;;5.54;100.00;99476.16;5034747;28;20448;-52
2023/12/14 02:38:33;;;;;;;0.30;0.20;;;;;;;5.51;100.00;99477.09;5023228;28;20542;-54
2023/12/14 02:40:59;;;;;;;0.30;0.20;;;;;;;5.73;100.00;99479.25;5022356;28;20457;-51
2023/12/14 02:43:26;;;;;;;0.30;0.20;;;;;;;5.57;100.00;99482.22;5030178;28;20461;-51
2023/12/14 02:45:52;;;;;;;0.30;0.20;;;;;;;5.63;100.00;99486.50;5035691;28;20464;-51
2023/12/14 02:48:19;;;;;;;0.30;0.20;;;;;;;5.59;100.00;99484.81;5036001;28;20448;-50
2023/12/14 02:50:45;;;;;;;0.30;0.20;;;;;;;5.62;100.00;99490.03;5021944;28;20488;-51
2023/12/14 02:53:12;;;;;;;0.30;0.20;;;;;;;5.58;100.00;99493.63;5035363;28;20550;-51
2023/12/14 02:55:39;;;;;;;0.30;0.20;;;;;;;5.61;100.00;99497.06;5034497;28;20458;-52
2023/12/14 02:58:05;;;;;;;0.30;0.20;;;;;;;5.67;100.00;99500.47;5023188;28;20456;-51
2023/12/14 03:00:32;;;;;;;0.30;0.17;;;;;;;5.61;100.00;99504.09;5035383;28;20486;-51
2023/12/14 03:02:58;;;;;;;0.30;0.20;;;;;;;5.57;100.00;99505.94;5023151;28;20475;-50
2023/12/14 03:05:24;;;;;;;0.30;0.20;;;;;;;5.67;100.00;99513.66;5017706;28;20525;-52
2023/12/14 03:07:51;;;;;;;0.30;0.20;;;;;;;5.70;100.00;99514.44;5027024;28;20461;-51
2023/12/14 03:10:18;;;;;;;0.30;0.20;;;;;;;5.67;100.00;99518.94;5017811;28;20449;-51
2023/12/14 03:12:45;;;;;;;0.30;0.20;;;;;;;5.80;100.00;99523.03;5026506;28;20935;-51
2023/12/14 03:15:11;;;;;;;0.30;0.17;;;;;;;5.75;100.00;99523.13;5031456;28;20452;-52
2023/12/14 03:17:38;;;;;;;0.30;0.20;;;;;;;5.87;100.00;99527.25;5027602;28;20511;-51
2023/12/14 03:20:06;;;;;;;0.30;0.20;;;;;;;5.93;100.00;99532.47;5047502;28;20543;-51
2023/12/14 03:22:32;;;;;;;0.30;0.20;;;;;;;5.93;100.00;99529.81;5025598;28;20463;-51
2023/12/14 03:24:59;;;;;;;0.30;0.20;;;;;;;5.88;100.00;99534.28;5031574;28;20460;-51
2023/12/14 03:27:26;;;;;;;0.30;0.20;;;;;;;5.96;100.00;99536.78;5025654;28;20452;-51
2023/12/14 03:29:52;;;;;;;0.30;0.20;;;;;;;6.07;100.00;99533.00;5031701;28;20548;-51
2023/12/14 03:32:19;;;;;;;0.30;0.20;;;;;;;5.98;100.00;99541.13;5033867;28;20667;-51
2023/12/14 03:34:45;;;;;;;0.30;0.20;;;;;;;6.06;100.00;99539.19;5035208;28;20487;-52
2023/12/14 03:37:12;;;;;;;0.30;0.20;;;;;;;6.01;100.00;99543.69;5035372;28;20447;-56
2023/12/14 03:39:39;;;;;;;0.30;0.20;;;;;;;5.89;100.00;99549.19;5030995;28;20950;-51
2023/12/14 03:42:05;;;;;;;0.30;0.20;;;;;;;5.93;100.00;99550.91;5026362;28;20499;-52
2023/12/14 03:44:32;;;;;;;0.30;0.20;;;;;;;6.01;100.00;99548.09;5022095;28;20490;-51
2023/12/14 03:47:00;;;;;;;0.30;0.20;;;;;;;6.14;100.00;99544.28;5024769;28;20506;-51
2023/12/14 03:49:26;;;;;;;0.30;0.20;;;;;;;6.08;100.00;99542.66;5027741;28;20522;-51
2023/12/14 03:51:53;;;;;;;0.30;0.20;;;;;;;6.11;100.00;99554.91;5026983;28;20502;-52
2023/12/14 03:54:19;;;;;;;0.30;0.20;;;;;;;5.98;100.00;99556.09;5034911;28;20534;-52
2023/12/14 03:56:46;;;;;;;0.30;0.20;;;;;;;5.85;100.00;99566.84;5017986;28;20483;-52
2023/12/14 03:59:12;;;;;;;0.30;0.20;;;;;;;5.82;100.00;99568.69;5017720;28;20448;-52
2023/12/14 04:01:40;;;;;;;0.30;0.20;;;;;;;5.96;100.00;99573.72;5026131;28;21035;-52
2023/12/14 04:04:06;;;;;;;0.30;0.10;;;;;;;5.81;100.00;99580.16;5034560;28;20509;-52
2023/12/14 04:06:33;;;;;;;0.30;0.20;;;;;;;5.77;100.00;99583.75;5034638;28;20527;-52
2023/12/14 04:08:59;;;;;;;0.30;0.20;;;;;;;5.68;100.00;99579.53;5017149;28;20881;-52
2023/12/14 04:11:26;;;;;;;0.30;0.17;;;;;;;5.80;100.00;99584.56;5026221;28;20491;-52
2023/12/14 04:13:53;;;;;;;0.30;0.20;;;;;;;5.73;100.00;99593.47;5030528;28;20462;-52
2023/12/14 04:16:20;;;;;;;0.30;0.20;;;;;;;5.84;100.00;99601.19;5017512;28;20511;-51
2023/12/14 04:18:51;;;;;;;0.30;0.20;;;;;;;5.77;100.00;99611.00;5028043;28;20448;-52
2023/12/14 04:21:18;;;;;;;0.30;0.20;;;;;;;5.82;100.00;99616.16;5030774;28;20472;-52
2023/12/14 04:23:45;;;;;;;0.30;0.10;;;;;;;5.79;100.00;99614.47;5020846;28;20455;-51
2023/12/14 04:26:13;;;;;;;0.30;0.20;;;;;;;5.86;100.00;99621.34;5021313;28;20455;-52
2023/12/14 04:28:40;;;;;;;0.30;0.17;;;;;;;5.94;100.00;99622.09;5035067;28;20534;-52
2023/12/14 04:31:07;;;;;;;0.30;0.20;;;;;;;5.92;100.00;99616.00;5036734;28;20483;-52
2023/12/14 04:33:33;;;;;;;0.30;0.20;;;;;;;5.98;100.00;99635.22;5025778;28;20448;-52
2023/12/14 04:36:00;;;;;;;0.30;0.20;;;;;;;5.78;100.00;99633.81;5025187;28;20460;-52
2023/12/14 04:38:26;;;;;;;0.30;0.10;;;;;;;5.84;100.00;99633.69;5038539;28;20543;-52
2023/12/14 04:40:53;;;;;;;0.20;0.10;;;;;;;5.85;100.00;99648.63;5038228;28;20807;-52
2023/12/14 04:43:19;;;;;;;0.30;0.10;;;;;;;5.88;100.00;99655.59;5018423;28;20499;-52
2023/12/14 04:45:46;;;;;;;0.30;0.20;;;;;;;5.96;100.00;99651.06;5031227;28;20909;-52
2023/12/14 04:48:12;;;;;;;0.30;0.10;;;;;;;5.89;100.00;99655.59;5038734;28;20447;-51
2023/12/14 04:50:38;;;;;;;0.30;0.17;;;;;;;5.79;100.00;99653.16;5037785;28;20452;-53
2023/12/14 04:53:05;;;;;;;0.30;0.20;;;;;;;5.91;100.00;99656.44;5044695;28;20492;-59
2023/12/14 04:55:31;;;;;;;0.30;0.20;;;;;;;6.05;100.00;99650.91;5032187;28;20448;-52
2023/12/14 04:57:58;;;;;;;0.30;0.20;;;;;;;5.88;100.00;99659.09;5038471;28;20455;-52
2023/12/14 05:00:24;;;;;;;0.30;0.20;;;;;;;5.80;100.00;99658.41;5025447;28;20457;-52
2023/12/14 05:02:51;;;;;;;0.30;0.20;;;;;;;5.89;100.00;99667.88;5038326;28;20494;-52
2023/12/14 05:05:17;;;;;;;0.30;0.20;;;;;;;6.03;100.00;99673.81;5048107;28;20461;-52
2023/12/14 05:07:44;;;;;;;0.30;0.17;;;;;;;5.96;100.00;99677.44;5031153;28;20475;-52
2023/12/14 05:10:10;;;;;;;0.30;0.20;;;;;;;5.91;100.00;99687.22;5024407;28;20518;-52
2023/12/14 05:12:37;;;;;;;0.30;0.20;;;;;;;6.15;100.00;99684.09;5025416;28;20490;-52
2023/12/14 05:15:07;;;;;;;0.30;0.10;;;;;;;6.15;100.00;99686.72;5037681;28;20517;-52
2023/12/14 05:17:36;;;;;;;0.30;0.20;;;;;;;6.10;100.00;99693.88;5037951;28;20534;-52
2023/12/14 05:20:05;;;;;;;0.30;0.20;;;;;;;6.04;100.00;99703.69;5037892;28;20444;-52
2023/12/14 05:22:31;;;;;;;0.30;0.20;;;;;;;6.04;100.00;99708.97;5036520;28;20521;-57
2023/12/14 05:24:58;;;;;;;0.30;0.20;;;;;;;6.01;100.00;99714.28;5037093;28;20519;-52
2023/12/14 05:27:25;;;;;;;0.30;0.20;;;;;;;5.95;100.00;99715.28;5036251;28;20543;-53
2023/12/14 05:29:52;;;;;;;0.30;0.20;;;;;;;6.14;100.00;99713.13;5027319;28;21017;-52
2023/12/14 05:32:18;;;;;;;0.30;0.20;;;;;;;6.13;100.00;99709.63;5037362;28;20498;-52
2023/12/14 05:34:46;;;;;;;0.30;0.20;;;;;;;6.03;100.00;99723.03;5036500;28;20474;-52
2023/12/14 05:37:12;;;;;;;0.30;0.20;;;;;;;6.15;100.00;99728.06;5034909;28;20875;-52
2023/12/14 05:39:41;;;;;;;0.30;0.20;;;;;;;6.19;100.00;99730.63;5031271;28;20976;-53
2023/12/14 05:42:08;;;;;;;0.30;0.20;;;;;;;6.16;100.00;99740.34;5036523;28;20463;-52
2023/12/14 05:44:34;;;;;;;0.30;0.20;;;;;;;6.00;100.00;99736.28;5021397;28;20451;-52
2023/12/14 05:47:01;;;;;;;0.30;0.10;;;;;;;6.02;100.00;99738.00;5030866;28;20474;-53
2023/12/14 05:49:27;;;;;;;0.30;0.20;;;;;;;6.08;100.00;99737.88;5034437;28;20447;-52
2023/12/14 05:51:54;;;;;;;0.30;0.20;;;;;;;5.99;100.00;99742.47;5028324;28;20546;-53
2023/12/14 05:54:20;;;;;;;0.73;0.70;;;;;;;6.10;100.00;99748.41;5032141;28;21000;-52
2023/12/14 05:56:47;;;;;;;0.30;0.20;;;;;;;6.11;100.00;99745.75;5022001;28;20480;-52
2023/12/14 05:59:13;;;;;;;0.30;0.20;;;;;;;6.13;100.00;99750.97;5036486;28;20801;-52
2023/12/14 06:01:40;;;;;;;0.30;0.20;;;;;;;6.14;100.00;99764.13;5036768;28;20471;-58
2023/12/14 06:04:06;;;;;;;0.30;0.20;;;;;;;6.14;100.00;99769.41;5038583;28;20498;-52
2023/12/14 06:06:33;;;;;;;0.30;0.20;;;;;;;6.61;100.00;99769.38;5045220;28;20956;-51
2023/12/14 06:08:59;;;;;;;0.30;0.20;;;;;;;6.37;100.00;99773.41;5032906;28;20456;-52
2023/12/14 06:11:26;;;;;;;0.30;0.20;;;;;;;6.33;100.00;99779.66;5036486;28;20466;-58
2023/12/14 06:13:52;;;;;;;0.30;0.20;;;;;;;6.46;100.00;99784.66;5030907;28;20483;-52
2023/12/14 06:16:18;;;;;;;0.30;0.20;;;;;;;6.44;100.00;99789.09;5036396;28;20458;-52
2023/12/14 06:18:45;;;;;;;0.30;0.10;;;;;;;6.45;100.00;99787.31;5033733;28;20459;-52
2023/12/14 06:21:12;;;;;;;0.30;0.20;;;;;;;6.28;100.00;99798.19;5036286;28;20554;-52
2023/12/14 06:23:39;;;;;;;0.30;0.20;;;;;;;6.37;100.00;99803.28;5028971;28;20988;-52
2023/12/14 06:26:06;;;;;;;0.30;0.20;;;;;;;6.37;100.00;99800.66;5016807;28;20456;-52
2023/12/14 06:28:32;;;;;;;0.30;0.20;;;;;;;6.34;100.00;99805.13;5036407;28;20455;-58
2023/12/14 06:31:01;;;;;;;0.30;0.10;;;;;;;6.50;100.00;99820.63;5036448;28;20963;-52
2023/12/14 06:33:27;;;;;;;0.30;0.20;;;;;;;6.61;100.00;99822.19;5023174;28;20448;-52
2023/12/14 06:35:54;;;;;;;0.30;0.20;;;;;;;6.60;100.00;99829.25;5023721;28;20452;-52
2023/12/14 06:38:21;;;;;;;0.30;0.17;;;;;;;6.45;100.00;99837.47;5016899;28;20548;-52
2023/12/14 06:40:47;;;;;;;0.30;0.20;;;;;;;6.49;100.00;99837.38;5029777;28;20459;-52
2023/12/14 06:43:13;;;;;;;0.30;0.20;;;;;;;6.40;100.00;99841.94;5036300;28;20464;-52
2023/12/14 06:45:40;;;;;;;0.30;0.20;;;;;;;6.46;100.00;99845.38;5023381;28;20453;-53
2023/12/14 06:48:06;;;;;;;0.30;0.20;;;;;;;6.42;100.00;99851.56;5036363;28;20448;-52
2023/12/14 06:50:33;;;;;;;0.30;0.20;;;;;;;6.45;100.00;99858.59;5023221;28;20535;-52
2023/12/14 06:52:59;;;;;;;0.30;0.20;;;;;;;6.45;100.00;99866.53;5035542;28;20571;-52
2023/12/14 06:55:26;;;;;;;0.30;0.20;;;;;;;6.55;100.00;99865.41;5036664;28;20820;-52
2023/12/14 06:57:52;;;;;;;0.30;0.10;;;;;;;6.59;100.00;99871.53;5036335;28;20490;-52
2023/12/14 07:00:19;;;;;;;0.40;0.40;;;;;;;6.65;100.00;99882.84;5022244;28;20540;-52
2023/12/14 07:02:45;;;;;;;0.30;0.20;;;;;;;6.68;100.00;99884.53;5035802;28;21019;-52
2023/12/14 07:05:12;;;;;;;0.30;0.20;;;;;;;6.71;100.00;99887.13;5036147;28;20497;-52
2023/12/14 07:07:39;;;;;;;0.30;0.20;;;;;;;6.62;100.00;99893.47;5035951;28;20475;-52
2023/12/14 07:10:06;;;;;;;0.30;0.20;;;;;;;6.49;100.00;99890.19;5035066;28;20452;-51
2023/12/14 07:12:32;;;;;;;0.30;0.10;;;;;;;6.59;100.00;99892.66;5021817;28;20495;-51
2023/12/14 07:14:59;;;;;;;0.30;0.20;;;;;;;6.74;100.00;99902.94;5035007;28;20451;-52
2023/12/14 07:17:25;;;;;;;0.30;0.20;;;;;;;6.81;100.00;99907.19;5023753;28;20486;-52
2023/12/14 07:19:53;;;;;;;0.30;0.20;;;;;;;6.86;100.00;99910.63;5016424;28;20460;-52
2023/12/14 07:22:22;;;;;;;0.30;0.13;;;;;;;6.83;100.00;99911.53;5023826;28;20471;-52
2023/12/14 07:24:49;;;;;;;0.30;0.20;;;;;;;6.83;100.00;99914.16;5036194;28;20511;-52
2023/12/14 07:27:24;;;;;;;0.30;0.20;;;;;;;6.84;100.00;99929.09;5026654;28;20871;-52
2023/12/14 07:29:51;;;;;;;0.30;0.20;;;;;;;6.81;100.00;99929.19;5031397;28;20498;-52
2023/12/14 07:32:17;;;;;;;0.30;0.20;;;;;;;6.79;100.00;99933.63;5027013;28;20492;-55
2023/12/14 07:34:44;;;;;;;0.30;0.20;;;;;;;6.88;100.00;99937.00;5016325;28;20488;-52
2023/12/14 07:37:11;;;;;;;0.30;0.20;;;;;;;6.81;100.00;99938.88;5024686;28;20451;-52
2023/12/14 07:39:38;;;;;;;0.30;0.20;;;;;;;6.90;100.00;99945.75;5032601;28;20535;-52
2023/12/14 07:42:05;;;;;;;0.30;0.20;;;;;;;6.91;100.00;99953.66;5025396;28;20470;-52
2023/12/14 07:44:32;;;;;;;0.30;0.20;;;;;;;6.90;100.00;99961.63;5022360;28;20934;-52
2023/12/14 07:47:00;;;;;;;0.30;0.20;;;;;;;6.96;100.00;99961.47;5026084;28;20580;-52
2023/12/14 07:49:26;;;;;;;0.30;0.20;;;;;;;6.94;100.00;99971.22;5019418;28;20455;-52
2023/12/14 07:51:53;;;;;;;0.30;0.20;;;;;;;7.04;100.00;99978.06;5024539;28;20507;-52
2023/12/14 07:54:19;;;;;;;0.30;0.20;;;;;;;7.02;100.00;99977.25;5033725;28;20451;-52
2023/12/14 07:56:49;;;;;;;0.30;0.20;;;;;;;7.09;100.00;99984.13;5035612;28;20450;-53
2023/12/14 07:59:16;;;;;;;0.30;0.20;;;;;;;7.16;100.00;99996.34;5030968;28;20483;-53
2023/12/14 08:01:42;;;;;;;0.30;0.20;;;;;;;7.10;100.00;99996.44;5015963;28;20470;-53
2023/12/14 08:04:11;;;;;;;0.30;0.20;;;;;;;7.04;100.00;99993.94;5032706;28;20448;-53
2023/12/14 08:06:40;;;;;;;0.30;0.20;;;;;;;7.20;100.00;99994.50;5039495;28;20451;-52
2023/12/14 08:09:08;;;;;;;0.30;0.30;;;;;;;7.16;100.00;100006.03;5033407;28;20463;-53
2023/12/14 08:11:34;;;;;;;0.30;0.20;;;;;;;7.28;100.00;100006.69;5019225;28;20526;-53
2023/12/14 08:14:02;;;;;;;0.30;0.20;;;;;;;7.31;100.00;100011.91;5019106;28;20543;-53
2023/12/14 08:16:29;;;;;;;0.30;0.20;;;;;;;7.28;100.00;100032.25;5032333;28;20509;-59
2023/12/14 08:18:56;;;;;;;0.30;0.20;;;;;;;7.35;100.00;100034.72;5031087;28;20450;-53
2023/12/14 08:21:22;;;;;;;0.30;0.20;;;;;;;7.35;100.00;100036.50;5038676;28;20551;-53
2023/12/14 08:23:49;;;;;;;0.30;0.20;;;;;;;7.26;100.00;100042.81;5039009;28;20941;-53
2023/12/14 08:26:15;;;;;;;0.30;0.20;;;;;;;7.25;100.00;100045.50;5025364;28;20519;-53
2023/12/14 08:28:43;;;;;;;0.30;0.20;;;;;;;7.26;100.00;100044.59;5031918;28;20495;-53
2023/12/14 08:31:11;;;;;;;0.30;0.20;;;;;;;7.29;100.00;100056.00;5014571;28;20476;-53
2023/12/14 08:33:41;;;;;;;0.30;0.20;;;;;;;7.40;100.00;100053.13;5037804;28;20479;-53
2023/12/14 08:36:08;;;;;;;0.30;0.20;;;;;;;7.48;100.00;100060.94;5025140;28;20456;-52
2023/12/14 08:38:34;;;;;;;0.30;0.20;;;;;;;7.54;100.00;100071.38;5038176;28;20889;-53
2023/12/14 08:41:01;;;;;;;0.30;0.20;;;;;;;7.58;100.00;100070.44;5036332;28;20538;-53
2023/12/14 08:43:27;;;;;;;0.30;0.20;;;;;;;7.58;100.00;100081.00;5018974;28;20455;-59
2023/12/14 08:45:54;;;;;;;0.30;0.20;;;;;;;7.54;100.00;100074.00;5033823;28;20479;-53
2023/12/14 08:48:20;;;;;;;0.30;0.20;;;;;;;7.58;100.00;100086.28;5037895;28;20546;-52
2023/12/14 08:50:47;;;;;;;0.30;0.20;;;;;;;7.51;100.00;100088.16;5024927;28;20512;-53
2023/12/14 08:53:13;;;;;;;0.30;0.20;;;;;;;7.55;100.00;100096.94;5037504;28;20582;-56
2023/12/14 08:55:40;;;;;;;0.30;0.20;;;;;;;7.55;100.00;100099.59;5036617;28;20448;-59
2023/12/14 08:58:06;;;;;;;0.40;0.30;;;;;;;7.61;100.00;100110.03;5037199;28;20447;-53
2023/12/14 09:00:33;;;;;;;0.30;0.20;;;;;;;7.72;100.00;100114.22;5037295;28;20945;-53
2023/12/14 09:02:59;;;;;;;0.30;0.20;;;;;;;7.78;100.00;100118.50;5037491;28;20911;-53
2023/12/14 09:05:26;;;;;;;0.30;0.20;;;;;;;7.86;100.00;100126.31;5046957;28;20873;-53
2023/12/14 09:07:55;;;;;;;0.30;0.20;;;;;;;7.89;100.00;100128.88;5036772;28;20452;-53
2023/12/14 09:10:22;;;;;;;0.30;0.20;;;;;;;8.02;100.00;100131.25;5033458;28;20451;-53
2023/12/14 09:12:49;;;;;;;0.30;0.20;;;;;;;8.03;100.00;100132.09;5025983;28;20537;-53
2023/12/14 09:15:15;;;;;;;0.30;0.20;;;;;;;8.07;100.00;100139.06;5036682;28;20478;-53
2023/12/14 09:17:43;;;;;;;0.30;0.20;;;;;;;8.08;100.00;100142.59;5036134;28;20858;-52
2023/12/14 09:20:11;;;;;;;0.50;0.50;;;;;;;8.11;100.00;100147.84;5036660;28;21023;-53
2023/12/14 09:22:37;;;;;;;0.30;0.20;;;;;;;8.10;100.00;100151.41;5036567;28;20468;-52
2023/12/14 09:25:04;;;;;;;0.30;0.20;;;;;;;8.15;100.00;100162.75;5032521;28;20456;-53
2023/12/14 09:27:31;;;;;;;0.30;0.20;;;;;;;8.27;100.00;100168.66;5026778;28;20455;-52
2023/12/14 09:29:58;;;;;;;0.30;0.20;;;;;;;8.22;100.00;100169.66;5022178;28;20448;-53
2023/12/14 09:32:24;;;;;;;0.30;0.20;;;;;;;8.42;100.00;100171.94;5034814;28;20495;-53
2023/12/14 09:34:51;;;;;;;0.30;0.20;;;;;;;8.42;100.00;100182.53;5030680;28;20449;-52
2023/12/14 09:37:19;;;;;;;0.30;0.20;;;;;;;8.51;100.00;100191.16;5025587;28;20452;-53
2023/12/14 09:39:45;;;;;;;0.30;0.20;;;;;;;8.60;100.00;100185.63;5030205;28;20484;-53
2023/12/14 09:42:17;;;;;;;0.30;0.20;;;;;;;8.76;100.00;100186.16;5025522;28;20448;-53
2023/12/14 09:44:45;;;;;;;0.30;0.20;;;;;;;8.84;100.00;100193.94;5028173;28;20444;-53
2023/12/14 09:47:12;;;;;;;0.30;0.20;;;;;;;9.01;100.00;100202.34;5013972;28;20445;-53
2023/12/14 09:49:42;;;;;;;0.30;0.20;;;;;;;9.06;100.00;100204.91;5026808;28;20934;-53
2023/12/14 09:52:10;;;;;;;0.30;0.20;;;;;;;9.17;100.00;100209.03;5026910;28;20483;-53
2023/12/14 09:54:36;;;;;;;0.30;0.20;;;;;;;9.22;100.00;100218.69;5031346;28;20448;-53
2023/12/14 09:57:03;;;;;;;0.30;0.20;;;;;;;9.16;100.00;100219.69;5033149;28;20456;-53
2023/12/14 09:59:29;;;;;;;0.30;0.20;;;;;;;9.35;100.00;100215.69;5019968;28;20451;-52
2023/12/14 10:02:09;;;;;;;0.30;0.20;;;;;;;9.36;100.00;100213.91;5033049;28;20855;-53
2023/12/14 10:04:37;;;;;;;0.30;0.20;;;;;;;9.40;100.00;100221.75;5025196;28;20443;-53
2023/12/14 10:07:07;;;;;;;0.30;0.20;;;;;;;9.53;100.00;100221.44;5035278;28;20464;-53
2023/12/14 10:09:37;;;;;;;0.30;0.20;;;;;;;9.59;100.00;100215.97;5022426;28;20440;-53
2023/12/14 10:12:08;;;;;;;0.30;0.20;;;;;;;9.50;100.00;100227.69;5032965;28;20482;-53
2023/12/14 10:14:36;;;;;;;0.30;0.20;;;;;;;9.58;100.00;100230.13;5005243;28;20476;-53
2023/12/14 10:17:17;;;;;;;0.30;0.20;;;;;;;9.63;100.00;100234.44;5030208;28;20452;-53
2023/12/14 10:19:46;;;;;;;0.50;0.50;;;;;;;9.55;100.00;100233.75;5020343;28;20451;-53
2023/12/14 10:22:20;;;;;;;0.30;0.20;;;;;;;9.66;100.00;100237.00;5019580;28;21042;-53
2023/12/14 10:24:47;;;;;;;0.30;0.20;;;;;;;9.69;100.00;100244.88;5019546;28;20455;-53
2023/12/14 10:27:15;;;;;;;0.30;0.20;;;;;;;9.96;100.00;100240.63;5032833;28;20486;-53
2023/12/14 10:29:44;;;;;;;0.30;0.20;;;;;;;9.78;100.00;100251.75;5030880;28;20444;-53
2023/12/14 10:32:11;;;;;;;0.30;0.20;;;;;;;9.80;100.00;100242.81;5021221;28;20976;-53
2023/12/14 10:34:41;;;;;;;0.30;0.20;;;;;;;10.03;100.00;100257.28;5030161;28;20517;-53
2023/12/14 10:37:09;;;;;;;0.30;0.20;;;;;;;9.97;100.00;100254.78;5022535;28;20544;-53
2023/12/14 10:39:37;;;;;;;0.30;0.20;;;;;;;9.88;100.00;100255.03;5016050;28;20864;-52
2023/12/14 10:42:08;;;;;;;0.30;0.20;;;;;;;9.73;100.00;100251.88;5014299;28;20473;-53
2023/12/14 10:44:48;;;;;;;0.30;0.20;;;;;;;9.55;100.00;100256.75;5032806;28;20508;-53
2023/12/14 10:47:34;;;;;;;0.30;0.30;;;;;;;9.70;100.00;100261.69;5033016;28;20444;-53
2023/12/14 10:50:01;;;;;;;0.30;0.20;;;;;;;9.70;100.00;100261.69;5034186;28;20454;-53
2023/12/14 10:52:29;;;;;;;0.30;0.20;;;;;;;9.58;100.00;100267.28;5020050;28;20865;-53
2023/12/14 10:55:00;;;;;;;0.30;0.20;;;;;;;9.80;100.00;100276.47;5033760;28;20452;-54
2023/12/14 10:57:28;;;;;;;0.30;0.20;;;;;;;9.63;99.38;100284.84;5030150;28;20448;-53
2023/12/14 10:59:59;;;;;;;3.50;3.40;;;;;;;9.69;99.03;100282.03;5024523;28;20459;-52
2023/12/14 11:02:26;;;;;;;0.30;0.20;;;;;;;9.70;98.77;100298.84;5020323;28;20529;-53
2023/12/14 11:05:09;;;;;;;0.30;0.20;;;;;;;9.53;100.00;100301.91;5031661;28;20554;-52
2023/12/14 11:07:46;;;;;;;0.30;0.20;;;;;;;9.23;100.00;100307.94;5025545;28;20441;-52
2023/12/14 11:10:13;;;;;;;0.30;0.20;;;;;;;9.26;99.52;100290.16;5029844;28;20462;-48
2023/12/14 11:12:55;;;;;;;0.30;0.20;;;;;;;9.32;100.00;100311.25;5020095;28;20515;-50
2023/12/14 11:15:22;;;;;;;0.30;0.20;;;;;;;9.37;100.00;100316.44;5032399;28;20456;-49
2023/12/14 11:18:21;;;;;;;0.30;0.20;;;;;;;9.32;99.50;100313.91;5023587;28;20456;-48
2023/12/14 11:20:52;;;;;;;0.30;0.20;;;;;;;9.45;99.22;100315.34;4996405;28;20555;-50
2023/12/14 11:23:24;;;;;;;0.30;0.20;;;;;;;9.42;99.64;100319.84;5032510;28;20543;-50
2023/12/14 11:25:59;;;;;;;0.30;0.20;;;;;;;9.36;99.66;100314.72;5033540;28;20462;-49
2023/12/14 11:28:27;;;;;;;0.30;0.20;;;;;;;9.46;98.96;100324.22;5023156;28;20459;-49
2023/12/14 11:30:55;;;;;;;0.30;0.20;;;;;;;9.43;99.54;100325.13;5034103;28;20915;-49
2023/12/14 11:33:23;;;;;;;0.30;0.20;;;;;;;9.25;99.35;100330.84;5027708;28;20491;-50